📊 Raw Sensor Data

Showing records 52751 to 52775 of 85,307 total

ID Distance (ft) Battery V Battery A Int Temp (°F) Int Humid (%) Ext Temp (°F) Solar V RSSI SNR Time Stamp
32569 12.6 3.64 -5 55 41 55 0.90 -79 8 02/16/2025 06:00 PM
32568 12.6 3.73 -10 57 40 55 4.20 -78 7 02/16/2025 05:45 PM
32567 12.6 3.64 7 60 39 58 4.50 -78 8 02/16/2025 05:30 PM
32566 12.6 3.74 0 61 39 60 5.10 -78 6 02/16/2025 05:15 PM
32565 12.6 3.74 0 61 39 60 5.10 -77 8 02/16/2025 05:00 PM
32564 12.6 4.05 0 61 40 59 5.10 -77 8 02/16/2025 04:45 PM
32563 12.6 4.04 0 62 39 60 5.10 -77 8 02/16/2025 04:30 PM
32562 12.6 3.74 0 63 39 61 5.10 -77 8 02/16/2025 04:15 PM
32561 12.6 3.74 0 63 39 60 5.10 -77 7 02/16/2025 04:00 PM
32560 12.6 3.81 0 65 38 61 5.10 -77 7 02/16/2025 03:45 PM
32559 12.6 3.74 0 65 39 61 5.10 -77 7 02/16/2025 03:30 PM
32558 12.6 3.74 0 66 39 61 5.10 -77 8 02/16/2025 03:15 PM
32557 12.6 4.06 0 67 39 61 5.10 -77 7 02/16/2025 03:00 PM
32556 12.7 4.01 0 68 38 63 5.10 -77 8 02/16/2025 02:45 PM
32555 12.7 3.74 0 69 38 63 5.10 -78 7 02/16/2025 02:30 PM
32554 12.7 3.74 0 69 38 63 5.10 -78 8 02/16/2025 02:15 PM
32553 12.7 3.74 0 69 37 62 5.10 -77 8 02/16/2025 02:00 PM
32552 12.7 3.74 0 71 36 64 5.10 -77 8 02/16/2025 01:45 PM
32551 12.7 3.74 0 70 35 64 5.10 -79 7 02/16/2025 01:30 PM
32550 12.7 3.73 0 66 37 62 5.10 -78 7 02/16/2025 01:15 PM
32549 12.6 3.73 0 64 38 61 5.10 -78 7 02/16/2025 01:00 PM
32548 12.7 3.77 0 65 38 61 5.10 -78 7 02/16/2025 12:45 PM
32547 12.7 3.74 0 66 36 61 5.10 -78 8 02/16/2025 12:30 PM
32546 12.7 3.74 0 65 37 60 5.10 -78 6 02/16/2025 12:15 PM
32545 12.7 3.74 0 66 35 61 5.10 -77 8 02/16/2025 12:00 PM